createdAt,value
2023-05-23T00:02:24.743Z,9.30
2023-05-23T00:04:52.548Z,9.63
2023-05-23T00:07:19.221Z,9.43
2023-05-23T00:09:45.897Z,9.80
2023-05-23T00:12:13.066Z,10.10
2023-05-23T00:14:40.117Z,8.97
2023-05-23T00:17:08.033Z,9.47
2023-05-23T00:19:36.450Z,9.70
2023-05-23T00:22:04.257Z,9.67
2023-05-23T00:24:30.918Z,9.50
2023-05-23T00:26:58.986Z,9.90
2023-05-23T00:29:25.738Z,10.03
2023-05-23T00:31:52.423Z,9.87
2023-05-23T00:34:19.660Z,9.43
2023-05-23T00:36:50.196Z,9.90
2023-05-23T00:39:19.999Z,9.77
2023-05-23T00:41:52.885Z,9.27
2023-05-23T00:44:20.535Z,9.53
2023-05-23T00:46:50.536Z,8.63
2023-05-23T00:49:20.098Z,9.97
2023-05-23T00:51:46.981Z,8.93
2023-05-23T00:54:15.158Z,9.53
2023-05-23T00:56:43.841Z,9.87
2023-05-23T00:59:10.678Z,9.17
2023-05-23T01:01:37.423Z,9.23
2023-05-23T01:04:04.421Z,9.80
2023-05-23T01:06:33.312Z,9.90
2023-05-23T01:09:02.594Z,9.33
2023-05-23T01:11:38.865Z,9.17
2023-05-23T01:14:09.257Z,9.80
2023-05-23T01:16:35.967Z,9.27
2023-05-23T01:19:16.488Z,9.70
2023-05-23T01:21:44.837Z,27.90
2023-05-23T01:24:22.908Z,12.57
2023-05-23T01:27:04.884Z,33.67
2023-05-23T01:29:37.856Z,16.70
2023-05-23T01:32:06.532Z,10.70
2023-05-23T01:34:34.977Z,10.40
2023-05-23T01:37:01.693Z,9.93
2023-05-23T01:39:28.374Z,9.70
2023-05-23T01:41:55.109Z,10.20
2023-05-23T01:44:22.086Z,9.40
2023-05-23T01:46:48.824Z,9.50
2023-05-23T01:49:16.817Z,10.10
2023-05-23T01:51:44.012Z,11.10
2023-05-23T01:54:11.399Z,10.00
2023-05-23T01:56:38.274Z,9.67
2023-05-23T01:59:05.113Z,10.70
2023-05-23T02:01:33.678Z,9.17
2023-05-23T02:04:00.584Z,9.57
2023-05-23T02:06:27.289Z,9.60
2023-05-23T02:08:53.996Z,10.47
2023-05-23T02:11:22.473Z,9.13
2023-05-23T02:13:49.371Z,9.90
2023-05-23T02:16:16.522Z,9.63
2023-05-23T02:18:46.038Z,9.40
2023-05-23T02:21:12.902Z,9.67
2023-05-23T02:23:39.584Z,9.23
2023-05-23T02:26:06.245Z,10.07
2023-05-23T02:28:32.982Z,9.70
2023-05-23T02:30:59.762Z,10.03
2023-05-23T02:33:26.446Z,9.70
2023-05-23T02:35:55.272Z,10.67
2023-05-23T02:38:21.987Z,9.53
2023-05-23T02:40:50.420Z,9.70
2023-05-23T02:43:17.594Z,11.13
2023-05-23T02:45:44.309Z,11.03
2023-05-23T02:48:11.976Z,9.77
2023-05-23T02:50:38.875Z,9.80
2023-05-23T02:53:05.746Z,9.90
2023-05-23T02:55:32.404Z,10.00
2023-05-23T02:57:59.137Z,10.13
2023-05-23T03:00:26.169Z,9.70
2023-05-23T03:02:55.571Z,10.07
2023-05-23T03:05:22.321Z,9.83
2023-05-23T03:07:48.985Z,9.73
2023-05-23T03:10:15.800Z,10.67
2023-05-23T03:12:43.649Z,10.37
2023-05-23T03:15:10.553Z,11.00
2023-05-23T03:17:40.039Z,11.60
2023-05-23T03:20:09.621Z,10.50
2023-05-23T03:22:36.638Z,10.10
2023-05-23T03:25:04.243Z,10.20
2023-05-23T03:27:31.005Z,9.90
2023-05-23T03:29:57.723Z,10.67
2023-05-23T03:32:24.460Z,10.70
2023-05-23T03:34:51.186Z,9.83
2023-05-23T03:37:17.831Z,10.47
2023-05-23T03:39:44.686Z,10.60
2023-05-23T03:42:11.334Z,9.93
2023-05-23T03:44:37.991Z,15.17
2023-05-23T03:47:07.173Z,19.33
2023-05-23T03:49:35.293Z,13.77
2023-05-23T03:52:01.969Z,11.37
2023-05-23T03:54:28.889Z,10.20
2023-05-23T03:56:55.551Z,10.07
2023-05-23T03:59:22.219Z,10.00
2023-05-23T04:01:49.349Z,11.00
2023-05-23T04:04:17.135Z,10.37
2023-05-23T04:06:44.349Z,10.57
2023-05-23T04:09:11.065Z,10.40
2023-05-23T04:11:41.306Z,10.87
2023-05-23T04:14:08.021Z,10.03
2023-05-23T04:16:36.083Z,10.77
2023-05-23T04:19:05.862Z,11.37
2023-05-23T04:21:32.920Z,10.07
2023-05-23T04:24:06.008Z,11.73
2023-05-23T04:26:32.991Z,10.00
2023-05-23T04:29:00.161Z,11.43
2023-05-23T04:31:26.942Z,10.20
2023-05-23T04:33:53.712Z,11.00
2023-05-23T04:36:23.393Z,10.93
2023-05-23T04:38:53.818Z,9.40
2023-05-23T04:41:23.326Z,10.57
2023-05-23T04:44:10.521Z,10.23
2023-05-23T04:46:45.327Z,11.13
2023-05-23T04:49:16.776Z,10.57
2023-05-23T04:51:43.651Z,11.03
2023-05-23T04:54:17.153Z,10.47
2023-05-23T04:56:43.955Z,14.03
2023-05-23T04:59:11.362Z,10.43
2023-05-23T05:01:41.587Z,10.97
2023-05-23T05:04:09.731Z,11.17
2023-05-23T05:06:36.554Z,10.77
2023-05-23T05:09:03.302Z,11.20
2023-05-23T05:11:30.535Z,10.37
2023-05-23T05:13:57.264Z,9.47
2023-05-23T05:16:24.540Z,10.43
2023-05-23T05:18:51.479Z,10.50
2023-05-23T05:21:19.608Z,11.00
2023-05-23T05:23:47.011Z,9.37
2023-05-23T05:26:16.114Z,8.97
2023-05-23T05:28:42.858Z,9.73
2023-05-23T05:31:10.004Z,10.27
2023-05-23T05:33:37.546Z,11.63
2023-05-23T05:36:09.557Z,11.73
2023-05-23T05:38:36.272Z,11.83
2023-05-23T05:41:03.372Z,11.40
2023-05-23T05:43:34.879Z,11.53
2023-05-23T05:46:02.104Z,10.10
2023-05-23T05:48:29.395Z,10.90
2023-05-23T05:51:01.132Z,9.23
2023-05-23T05:53:30.584Z,9.83
2023-05-23T05:55:57.275Z,9.83
2023-05-23T05:58:23.974Z,9.77
2023-05-23T06:00:57.644Z,9.27
2023-05-23T06:03:24.755Z,9.07
2023-05-23T06:05:54.097Z,9.73
2023-05-23T06:08:21.427Z,9.73
2023-05-23T06:10:48.696Z,9.87
2023-05-23T06:13:15.486Z,9.37
2023-05-23T06:15:45.772Z,9.87
2023-05-23T06:18:13.510Z,9.47
2023-05-23T06:20:40.699Z,11.00
2023-05-23T06:23:12.032Z,10.23
2023-05-23T06:25:39.391Z,10.00
2023-05-23T06:28:06.451Z,10.50
2023-05-23T06:30:37.470Z,11.27
2023-05-23T06:33:04.735Z,9.33
2023-05-23T06:35:31.519Z,10.80
2023-05-23T06:38:01.140Z,9.97
2023-05-23T06:40:27.814Z,9.57
2023-05-23T06:42:54.583Z,9.13
2023-05-23T06:45:31.938Z,9.43
2023-05-23T06:48:01.071Z,9.83
2023-05-23T06:50:27.829Z,9.63
2023-05-23T06:52:54.657Z,10.47
2023-05-23T06:55:21.507Z,11.53
2023-05-23T06:57:51.947Z,10.87
2023-05-23T07:00:20.585Z,11.67
2023-05-23T07:03:09.921Z,9.93
2023-05-23T07:05:39.297Z,11.13
2023-05-23T07:08:10.725Z,12.63
2023-05-23T07:10:39.192Z,11.20
2023-05-23T07:13:16.768Z,10.77
2023-05-23T07:15:43.917Z,10.17
2023-05-23T07:18:13.707Z,12.27
2023-05-23T07:20:40.769Z,9.60
2023-05-23T07:23:15.538Z,11.20
2023-05-23T07:25:53.897Z,10.43
2023-05-23T07:28:30.584Z,11.30
2023-05-23T07:30:58.376Z,9.53
2023-05-23T07:33:25.537Z,9.40
2023-05-23T07:35:56.277Z,9.50
2023-05-23T07:38:22.956Z,9.33
2023-05-23T07:40:58.697Z,9.70
2023-05-23T07:43:25.860Z,11.07
2023-05-23T07:45:52.644Z,9.97
2023-05-23T07:48:19.437Z,9.10
2023-05-23T07:50:46.185Z,11.77
2023-05-23T07:53:12.892Z,9.90
2023-05-23T07:55:40.908Z,17.93
2023-05-23T07:58:07.892Z,11.77
2023-05-23T08:00:36.869Z,10.73
2023-05-23T08:03:11.814Z,10.90
2023-05-23T08:05:48.129Z,12.43
2023-05-23T08:08:14.915Z,10.40
2023-05-23T08:10:42.136Z,10.13
2023-05-23T08:13:16.356Z,11.67
2023-05-23T08:15:58.617Z,12.27
2023-05-23T08:18:29.169Z,9.73
2023-05-23T08:20:55.874Z,9.73
2023-05-23T08:23:22.579Z,9.83
2023-05-23T08:25:49.774Z,10.07
2023-05-23T08:28:16.964Z,10.73
2023-05-23T08:30:57.032Z,10.47
2023-05-23T08:33:24.800Z,9.33
2023-05-23T08:35:54.338Z,9.13
2023-05-23T08:38:21.978Z,8.43
2023-05-23T08:41:01.223Z,9.27
2023-05-23T08:43:30.077Z,8.93
2023-05-23T08:45:57.321Z,9.07
2023-05-23T08:48:26.963Z,8.67
2023-05-23T08:50:53.700Z,10.07
2023-05-23T08:53:22.985Z,9.10
2023-05-23T08:56:02.191Z,9.13
2023-05-23T08:58:35.447Z,8.87
2023-05-23T09:01:03.649Z,9.20
2023-05-23T09:03:30.433Z,8.67
2023-05-23T09:06:08.880Z,8.27
2023-05-23T09:08:35.773Z,8.87
2023-05-23T09:11:03.996Z,10.40
2023-05-23T09:13:33.643Z,9.13
2023-05-23T09:16:03.333Z,8.37
2023-05-23T09:18:35.999Z,8.87
2023-05-23T09:21:03.992Z,7.70
2023-05-23T09:23:32.948Z,10.97
2023-05-23T09:26:13.185Z,9.63
2023-05-23T09:28:40.502Z,8.27
2023-05-23T09:31:08.690Z,8.80
2023-05-23T09:33:50.380Z,9.90
2023-05-23T09:36:19.066Z,9.87
2023-05-23T09:38:46.626Z,9.57
2023-05-23T09:41:13.749Z,8.90
2023-05-23T09:43:49.590Z,12.50
2023-05-23T09:46:16.358Z,10.23
2023-05-23T09:48:47.120Z,8.27
2023-05-23T09:51:14.947Z,9.17
2023-05-23T09:53:42.032Z,8.60
2023-05-23T09:56:11.447Z,8.17
2023-05-23T09:58:38.872Z,10.30
2023-05-23T10:01:07.247Z,8.13
2023-05-23T10:03:35.551Z,10.67
2023-05-23T10:06:10.618Z,8.57
2023-05-23T10:08:39.895Z,10.17
2023-05-23T10:11:12.739Z,8.30
2023-05-23T10:13:47.048Z,7.93
2023-05-23T10:16:22.556Z,10.27
2023-05-23T10:18:53.053Z,7.77
2023-05-23T10:21:24.311Z,8.23
2023-05-23T10:23:51.002Z,6.87
2023-05-23T10:26:17.991Z,7.20
2023-05-23T10:28:45.318Z,6.60
2023-05-23T10:31:12.716Z,7.10
2023-05-23T10:33:43.166Z,6.60
2023-05-23T10:36:17.738Z,9.37
2023-05-23T10:38:51.408Z,6.90
2023-05-23T10:41:31.185Z,6.30
2023-05-23T10:44:04.996Z,7.23
2023-05-23T10:46:50.590Z,7.87
2023-05-23T10:49:17.559Z,7.20
2023-05-23T10:51:48.190Z,5.57
2023-05-23T10:54:17.919Z,6.13
2023-05-23T10:56:44.720Z,5.50
2023-05-23T10:59:20.078Z,5.53
2023-05-23T11:01:46.946Z,5.27
2023-05-23T11:04:13.817Z,7.33
2023-05-23T11:06:43.080Z,5.90
2023-05-23T11:09:13.938Z,5.87
2023-05-23T11:12:15.961Z,5.70
2023-05-23T11:14:48.442Z,5.17
2023-05-23T11:17:16.814Z,5.07
2023-05-23T11:19:59.668Z,5.27
2023-05-23T11:22:32.351Z,7.27
2023-05-23T11:24:59.747Z,4.77
2023-05-23T11:27:36.215Z,5.13
2023-05-23T11:30:13.781Z,6.30
2023-05-23T11:32:41.386Z,5.03
2023-05-23T11:35:09.260Z,5.10
2023-05-23T11:37:36.005Z,4.53
2023-05-23T11:40:21.484Z,4.43
2023-05-23T11:42:48.279Z,4.87
2023-05-23T11:45:15.006Z,5.17
2023-05-23T11:47:42.103Z,5.07
2023-05-23T11:50:11.743Z,4.43
2023-05-23T11:52:38.742Z,3.97
2023-05-23T11:55:07.004Z,4.50
2023-05-23T11:57:33.785Z,4.83
2023-05-23T12:00:00.571Z,3.60
2023-05-23T12:02:28.468Z,11.80
2023-05-23T12:04:55.557Z,13.90
2023-05-23T12:07:22.457Z,7.13
2023-05-23T12:09:49.265Z,3.80
2023-05-23T12:12:16.470Z,3.20
2023-05-23T12:14:44.567Z,5.50
2023-05-23T12:17:12.757Z,3.23
2023-05-23T12:19:40.113Z,3.17
2023-05-23T12:22:10.017Z,3.20
2023-05-23T12:24:47.545Z,5.47
2023-05-23T12:27:17.315Z,10.43
2023-05-23T12:29:49.717Z,4.87
2023-05-23T12:32:16.407Z,5.23
2023-05-23T12:34:43.647Z,3.77
2023-05-23T12:37:19.472Z,5.73
2023-05-23T12:39:47.135Z,11.53
2023-05-23T12:42:14.001Z,4.63
2023-05-23T12:44:41.141Z,7.17
2023-05-23T12:47:07.974Z,3.10
2023-05-23T12:49:34.751Z,2.70
2023-05-23T12:52:01.608Z,2.40
2023-05-23T12:54:28.308Z,2.70
2023-05-23T12:56:55.061Z,3.17
2023-05-23T12:59:21.764Z,4.50
2023-05-23T13:01:48.565Z,5.97
2023-05-23T13:04:15.325Z,5.77
2023-05-23T13:06:42.122Z,3.70
2023-05-23T13:09:09.224Z,5.00
2023-05-23T13:11:36.060Z,4.00
2023-05-23T13:14:03.566Z,3.43
2023-05-23T13:16:30.376Z,3.97
2023-05-23T13:18:57.158Z,4.33
2023-05-23T13:21:24.003Z,4.37
2023-05-23T13:23:50.769Z,3.40
2023-05-23T13:26:17.594Z,3.30
2023-05-23T13:28:44.454Z,2.97
2023-05-23T13:31:11.446Z,5.53
2023-05-23T13:33:38.297Z,4.70
2023-05-23T13:36:05.210Z,2.90
2023-05-23T13:38:32.229Z,3.07
2023-05-23T13:40:59.187Z,2.90
2023-05-23T13:43:26.158Z,4.70
2023-05-23T13:45:52.930Z,4.60
2023-05-23T13:48:20.009Z,4.23
2023-05-23T13:50:46.927Z,3.77
2023-05-23T13:53:16.762Z,3.17
2023-05-23T13:55:45.545Z,4.40
2023-05-23T13:58:12.824Z,4.73
2023-05-23T14:00:39.802Z,3.07
2023-05-23T14:03:07.047Z,4.27
2023-05-23T14:05:34.043Z,5.03
2023-05-23T14:08:00.789Z,7.73
2023-05-23T14:10:28.870Z,6.70
2023-05-23T14:12:55.802Z,3.30
2023-05-23T14:15:23.534Z,3.00
2023-05-23T14:17:55.234Z,2.90
2023-05-23T14:20:22.291Z,3.17
2023-05-23T14:22:49.379Z,2.80
2023-05-23T14:25:16.538Z,2.93
2023-05-23T14:27:43.274Z,2.60
2023-05-23T14:30:10.462Z,2.40
2023-05-23T14:32:40.253Z,3.13
2023-05-23T14:35:07.640Z,4.67
2023-05-23T14:37:34.423Z,2.90
2023-05-23T14:40:01.254Z,3.00
2023-05-23T14:42:27.973Z,3.43
2023-05-23T14:44:54.718Z,3.17
2023-05-23T14:47:21.561Z,3.13
2023-05-23T14:49:48.271Z,2.60
2023-05-23T14:52:15.132Z,2.83
2023-05-23T14:54:43.529Z,2.83
2023-05-23T14:57:10.446Z,3.13
2023-05-23T14:59:37.199Z,2.70
2023-05-23T15:02:04.407Z,2.40
2023-05-23T15:04:31.697Z,2.60
2023-05-23T15:06:58.659Z,2.67
2023-05-23T15:09:25.615Z,2.30
2023-05-23T15:11:52.408Z,4.20
2023-05-23T15:14:19.181Z,2.33
2023-05-23T15:16:46.280Z,2.70
2023-05-23T15:19:13.137Z,3.13
2023-05-23T15:21:46.400Z,2.23
2023-05-23T15:24:17.041Z,2.60
2023-05-23T15:26:43.833Z,3.93
2023-05-23T15:29:10.638Z,2.30
2023-05-23T15:31:38.199Z,2.50
2023-05-23T15:34:04.965Z,2.20
2023-05-23T15:36:32.218Z,2.87
2023-05-23T15:38:59.051Z,2.33
2023-05-23T15:41:26.492Z,2.47
2023-05-23T15:43:53.452Z,2.47
2023-05-23T15:46:20.914Z,2.33
2023-05-23T15:48:47.671Z,2.33
2023-05-23T15:51:14.430Z,2.83
2023-05-23T15:53:59.096Z,2.97
2023-05-23T15:56:27.538Z,2.17
2023-05-23T15:58:54.251Z,2.47
2023-05-23T16:01:21.070Z,2.53
2023-05-23T16:03:48.022Z,2.70
2023-05-23T16:06:15.025Z,2.47
2023-05-23T16:08:41.802Z,2.70
2023-05-23T16:11:08.482Z,3.57
2023-05-23T16:13:35.267Z,3.67
2023-05-23T16:16:02.922Z,3.30
2023-05-23T16:18:29.798Z,3.17
2023-05-23T16:20:57.387Z,5.00
2023-05-23T16:23:24.254Z,2.57
2023-05-23T16:25:50.975Z,2.40
2023-05-23T16:28:18.017Z,2.30
2023-05-23T16:30:44.760Z,2.60
2023-05-23T16:33:11.772Z,3.53
2023-05-23T16:35:38.678Z,2.57
2023-05-23T16:38:06.849Z,3.03
2023-05-23T16:40:33.599Z,2.30
2023-05-23T16:43:00.830Z,2.53
2023-05-23T16:45:27.615Z,4.00
2023-05-23T16:47:54.403Z,2.40
2023-05-23T16:50:21.079Z,2.67
2023-05-23T16:52:47.773Z,2.77
2023-05-23T16:55:14.443Z,2.30
2023-05-23T16:57:41.140Z,3.07
2023-05-23T17:00:08.873Z,2.40
2023-05-23T17:02:36.177Z,2.53
2023-05-23T17:05:03.713Z,2.27
2023-05-23T17:07:30.809Z,2.83
2023-05-23T17:09:57.735Z,2.50
2023-05-23T17:12:25.392Z,2.43
2023-05-23T17:14:52.475Z,2.10
2023-05-23T17:17:19.205Z,2.40
2023-05-23T17:19:46.221Z,2.77
2023-05-23T17:22:13.181Z,2.87
2023-05-23T17:24:39.992Z,1.93
2023-05-23T17:27:06.899Z,2.30
2023-05-23T17:29:33.652Z,4.57
2023-05-23T17:32:00.528Z,4.60
2023-05-23T17:34:27.239Z,2.43
2023-05-23T17:36:54.152Z,1.90
2023-05-23T17:39:20.933Z,3.70
2023-05-23T17:41:47.650Z,3.63
2023-05-23T17:44:14.350Z,3.67
2023-05-23T17:46:41.388Z,2.40
2023-05-23T17:49:08.138Z,2.23
2023-05-23T17:51:34.908Z,2.90
2023-05-23T17:54:04.101Z,8.03
2023-05-23T17:56:31.020Z,5.73
2023-05-23T17:59:41.835Z,16.93
2023-05-23T18:02:10.532Z,3.17
2023-05-23T18:04:37.371Z,3.07
2023-05-23T18:07:05.751Z,1.97
2023-05-23T18:09:32.430Z,1.60
2023-05-23T18:11:59.653Z,1.60
2023-05-23T18:14:26.620Z,1.70
2023-05-23T18:16:53.509Z,2.20
2023-05-23T18:19:20.303Z,3.40
2023-05-23T18:21:47.027Z,1.97
2023-05-23T18:24:13.773Z,1.80
2023-05-23T18:26:42.914Z,1.80
2023-05-23T18:29:09.889Z,1.67
2023-05-23T18:31:36.941Z,1.60
2023-05-23T18:34:03.873Z,1.83
2023-05-23T18:36:31.489Z,1.80
2023-05-23T18:38:58.571Z,1.80
2023-05-23T18:41:27.949Z,1.90
2023-05-23T18:43:54.735Z,2.50
2023-05-23T18:46:23.944Z,1.87
2023-05-23T18:48:51.376Z,1.87
2023-05-23T18:51:18.192Z,1.60
2023-05-23T18:53:44.989Z,1.80
2023-05-23T18:56:11.912Z,1.40
2023-05-23T18:58:38.710Z,1.57
2023-05-23T19:01:06.863Z,2.43
2023-05-23T19:03:37.283Z,1.90
2023-05-23T19:06:04.397Z,2.00
2023-05-23T19:08:31.798Z,1.80
2023-05-23T19:10:58.757Z,1.93
2023-05-23T19:13:26.142Z,1.60
2023-05-23T19:15:52.964Z,1.77
2023-05-23T19:18:20.145Z,1.77
2023-05-23T19:20:47.772Z,2.40
2023-05-23T19:23:15.191Z,1.90
2023-05-23T19:25:45.102Z,1.80
2023-05-23T19:28:12.001Z,3.27
2023-05-23T19:30:39.026Z,2.50
2023-05-23T19:33:05.780Z,2.23
2023-05-23T19:35:32.738Z,3.80
2023-05-23T19:38:00.749Z,4.50
2023-05-23T19:40:27.546Z,3.93
2023-05-23T19:42:54.286Z,3.47
2023-05-23T19:45:21.209Z,2.97
2023-05-23T19:47:48.060Z,3.13
2023-05-23T19:50:14.902Z,2.67
2023-05-23T19:52:42.137Z,2.63
2023-05-23T19:55:09.940Z,2.50
2023-05-23T19:57:37.123Z,3.00
2023-05-23T20:00:05.646Z,4.23
2023-05-23T20:02:33.209Z,3.13
2023-05-23T20:04:59.975Z,2.80
2023-05-23T20:07:26.774Z,3.13
2023-05-23T20:09:54.174Z,3.13
2023-05-23T20:12:20.906Z,3.37
2023-05-23T20:14:47.582Z,3.90
2023-05-23T20:17:14.277Z,3.70
2023-05-23T20:19:41.014Z,4.37
2023-05-23T20:22:07.758Z,6.07
2023-05-23T20:24:34.573Z,4.37
2023-05-23T20:27:01.279Z,4.87
2023-05-23T20:29:27.965Z,5.97
2023-05-23T20:31:54.806Z,3.67
2023-05-23T20:34:21.720Z,3.03
2023-05-23T20:36:48.729Z,3.60
2023-05-23T20:39:15.905Z,3.33
2023-05-23T20:41:43.636Z,3.17
2023-05-23T20:44:13.931Z,4.80
2023-05-23T20:46:40.713Z,4.10
2023-05-23T20:49:07.420Z,3.73
2023-05-23T20:51:35.312Z,3.13
2023-05-23T20:54:03.213Z,3.40
2023-05-23T20:56:30.914Z,4.07
2023-05-23T20:58:57.636Z,5.67
2023-05-23T21:01:24.377Z,3.67
2023-05-23T21:03:51.483Z,3.40
2023-05-23T21:06:18.318Z,3.70
2023-05-23T21:08:45.117Z,2.77
2023-05-23T21:11:11.910Z,3.77
2023-05-23T21:13:39.902Z,3.47
2023-05-23T21:16:08.619Z,3.70
2023-05-23T21:18:35.481Z,3.03
2023-05-23T21:21:02.213Z,2.97
2023-05-23T21:23:29.023Z,3.77
2023-05-23T21:25:56.181Z,3.23
2023-05-23T21:28:22.910Z,3.07
2023-05-23T21:30:50.003Z,3.90
2023-05-23T21:33:16.999Z,3.70
2023-05-23T21:35:45.104Z,3.67
2023-05-23T21:38:11.837Z,3.30
2023-05-23T21:40:38.563Z,4.10
2023-05-23T21:43:05.376Z,3.23
2023-05-23T21:45:32.143Z,2.83
2023-05-23T21:47:59.068Z,4.00
2023-05-23T21:50:25.856Z,4.30
2023-05-23T21:52:52.531Z,4.13
2023-05-23T21:55:19.559Z,5.70
2023-05-23T21:57:46.365Z,4.47
2023-05-23T22:00:13.357Z,4.70
2023-05-23T22:02:40.857Z,2.90
2023-05-23T22:05:07.869Z,4.73
2023-05-23T22:07:34.637Z,6.97
2023-05-23T22:10:01.329Z,4.47
2023-05-23T22:12:28.704Z,4.57
2023-05-23T22:14:55.603Z,5.27
2023-05-23T22:17:22.971Z,4.13
2023-05-23T22:19:51.722Z,5.30
2023-05-23T22:22:18.761Z,4.93
2023-05-23T22:24:45.499Z,5.10
2023-05-23T22:27:12.296Z,4.97
2023-05-23T22:29:39.181Z,5.43
2023-05-23T22:32:06.125Z,5.30
2023-05-23T22:34:32.893Z,4.07
2023-05-23T22:37:00.390Z,3.80
2023-05-23T22:39:27.301Z,4.20
2023-05-23T22:41:53.989Z,5.37
2023-05-23T22:44:20.934Z,3.87
2023-05-23T22:46:47.686Z,4.20
2023-05-23T22:49:15.302Z,6.27
2023-05-23T22:51:42.112Z,5.33
2023-05-23T22:54:08.814Z,3.87
2023-05-23T22:56:35.580Z,5.93
2023-05-23T22:59:02.331Z,5.47
2023-05-23T23:01:29.845Z,5.37
2023-05-23T23:03:56.585Z,5.67
2023-05-23T23:06:23.278Z,7.10
2023-05-23T23:08:50.537Z,4.80
2023-05-23T23:11:17.279Z,3.63
2023-05-23T23:13:43.990Z,5.10
2023-05-23T23:16:10.750Z,7.40
2023-05-23T23:18:37.471Z,5.97
2023-05-23T23:21:04.229Z,7.37
2023-05-23T23:23:31.206Z,5.60
2023-05-23T23:25:59.315Z,4.77
2023-05-23T23:28:26.071Z,4.90
2023-05-23T23:30:52.748Z,3.93
2023-05-23T23:33:19.477Z,4.27
2023-05-23T23:35:48.381Z,6.17
2023-05-23T23:38:15.650Z,5.53
2023-05-23T23:40:45.186Z,5.30
2023-05-23T23:43:12.343Z,5.47
2023-05-23T23:45:39.022Z,5.90
2023-05-23T23:48:05.850Z,4.97
2023-05-23T23:50:32.673Z,6.37
2023-05-23T23:52:59.384Z,9.43
2023-05-23T23:55:26.091Z,7.03
2023-05-23T23:57:52.903Z,6.20
